Time;durP1;ratioP1;P1;durP2;ratioP2;P2;SDS_P1;SDS_P2;PMS_P1;PMS_P2;Temp;Humidity;BMP_temperature;BMP_pressure;BME280_temperature;BME280_humidity;BME280_pressure;Samples;Min_cycle;Max_cycle;Signal;HPM_P1;HPM_P2
2024/01/25 00:01:39;;;;;;;0.00;0.00;;;12.40;73.80;;;;;;5035208;28;20612;-27
2024/01/25 00:04:11;;;;;;;0.00;0.00;;;12.40;73.90;;;;;;5033639;28;20197;-27
2024/01/25 00:06:43;;;;;;;0.00;0.00;;;12.40;73.90;;;;;;5035139;28;20315;-27
2024/01/25 00:09:10;;;;;;;0.00;0.00;;;12.30;73.70;;;;;;5036009;28;20641;-27
2024/01/25 00:11:40;;;;;;;0.00;0.00;;;12.30;73.70;;;;;;5031602;28;20252;-27
2024/01/25 00:14:09;;;;;;;0.00;0.00;;;12.30;73.80;;;;;;5019614;28;20209;-27
2024/01/25 00:16:41;;;;;;;0.00;0.00;;;12.30;73.80;;;;;;5037233;28;20201;-28
2024/01/25 00:19:08;;;;;;;0.00;0.00;;;12.30;73.90;;;;;;5033643;28;20201;-28
2024/01/25 00:21:43;;;;;;;0.00;0.00;;;12.30;73.80;;;;;;5036478;28;20323;-27
2024/01/25 00:24:13;;;;;;;0.00;0.00;;;12.30;73.80;;;;;;5037717;28;20207;-28
2024/01/25 00:26:40;;;;;;;0.00;0.00;;;12.30;73.80;;;;;;5034275;28;20222;-28
2024/01/25 00:29:10;;;;;;;0.00;0.00;;;12.30;73.70;;;;;;5030815;28;20278;-27
2024/01/25 00:31:39;;;;;;;0.00;0.00;;;12.30;73.70;;;;;;5038674;28;20293;-28
2024/01/25 00:34:09;;;;;;;0.00;0.00;;;12.30;73.70;;;;;;5039931;28;20335;-28
2024/01/25 00:36:37;;;;;;;0.00;0.00;;;12.20;73.70;;;;;;5035640;28;20314;-28
2024/01/25 00:39:08;;;;;;;0.00;0.00;;;12.20;73.70;;;;;;5036059;28;20673;-28
2024/01/25 00:41:38;;;;;;;0.00;0.00;;;12.20;73.70;;;;;;5030398;28;20200;-30
2024/01/25 00:44:06;;;;;;;0.00;0.00;;;12.20;73.70;;;;;;5029937;28;20557;-27
2024/01/25 00:46:33;;;;;;;0.00;0.00;;;12.20;73.70;;;;;;5034350;28;20234;-27
2024/01/25 00:49:03;;;;;;;0.00;0.00;;;12.20;73.70;;;;;;5039015;28;20196;-28
2024/01/25 00:51:33;;;;;;;0.00;0.00;;;12.10;73.60;;;;;;5036931;28;20228;-27
2024/01/25 00:54:01;;;;;;;0.00;0.00;;;12.10;73.60;;;;;;5035297;28;20205;-28
2024/01/25 00:56:32;;;;;;;0.00;0.00;;;12.10;73.70;;;;;;5027765;28;20209;-28
2024/01/25 00:59:05;;;;;;;0.00;0.00;;;12.00;73.70;;;;;;5030212;28;20219;-28
2024/01/25 01:01:32;;;;;;;0.00;0.00;;;12.10;73.70;;;;;;5032023;28;20556;-28
2024/01/25 01:04:00;;;;;;;0.00;0.00;;;12.00;73.80;;;;;;5033090;28;20230;-27
2024/01/25 01:06:30;;;;;;;0.00;0.00;;;12.00;73.80;;;;;;5035357;28;20285;-28
2024/01/25 01:08:59;;;;;;;0.00;0.00;;;12.00;73.70;;;;;;5030504;28;20205;-28
2024/01/25 01:11:29;;;;;;;0.00;0.00;;;12.00;73.70;;;;;;5029265;28;20250;-28
2024/01/25 01:13:56;;;;;;;0.00;0.00;;;12.00;73.80;;;;;;5019853;28;20777;-29
2024/01/25 01:16:26;;;;;;;0.00;0.00;;;12.00;73.80;;;;;;5031499;28;20269;-28
2024/01/25 01:18:53;;;;;;;0.00;0.00;;;12.00;73.80;;;;;;5032838;28;20247;-28
2024/01/25 01:21:24;;;;;;;0.00;0.00;;;11.90;73.80;;;;;;5035460;28;20294;-28
2024/01/25 01:23:51;;;;;;;0.00;0.00;;;11.90;73.70;;;;;;5023483;28;20750;-28
2024/01/25 01:26:20;;;;;;;0.00;0.00;;;11.90;73.80;;;;;;5031948;28;20207;-28
2024/01/25 01:28:49;;;;;;;0.00;0.00;;;11.90;73.80;;;;;;5039030;28;20223;-28
2024/01/25 01:31:19;;;;;;;0.00;0.00;;;11.90;74.50;;;;;;5034189;28;20227;-28
2024/01/25 01:33:47;;;;;;;0.00;0.00;;;11.90;73.70;;;;;;5036334;28;20213;-28
2024/01/25 01:36:14;;;;;;;0.00;0.00;;;11.80;73.70;;;;;;5024796;28;20205;-28
2024/01/25 01:38:41;;;;;;;0.00;0.00;;;11.80;73.60;;;;;;5036596;28;20228;-28
2024/01/25 01:41:11;;;;;;;0.00;0.00;;;11.80;73.70;;;;;;5017526;28;20766;-28
2024/01/25 01:43:41;;;;;;;0.00;0.00;;;11.80;73.80;;;;;;5036860;28;20203;-28
2024/01/25 01:46:30;;;;;;;0.00;0.00;;;11.80;73.80;;;;;;5036028;28;20625;-28
2024/01/25 01:48:57;;;;;;;0.00;0.00;;;11.70;73.80;;;;;;5041372;28;20228;-28
2024/01/25 01:51:29;;;;;;;0.00;0.00;;;11.70;73.80;;;;;;5030745;28;20197;-28
2024/01/25 01:54:07;;;;;;;0.00;0.00;;;11.70;73.90;;;;;;5030143;28;20215;-28
2024/01/25 01:56:40;;;;;;;0.00;0.00;;;11.70;73.90;;;;;;5037040;28;20199;-28
2024/01/25 01:59:11;;;;;;;0.00;0.00;;;11.60;73.90;;;;;;5035987;28;20223;-28
2024/01/25 02:01:45;;;;;;;0.00;0.00;;;11.70;73.90;;;;;;5025590;28;20205;-28
2024/01/25 02:04:13;;;;;;;0.00;0.00;;;11.60;73.90;;;;;;5015695;28;20205;-28
2024/01/25 02:06:45;;;;;;;0.00;0.00;;;11.60;73.80;;;;;;5027594;28;20283;-28
2024/01/25 02:09:13;;;;;;;0.00;0.00;;;11.60;73.90;;;;;;5035213;28;20216;-28
2024/01/25 02:11:40;;;;;;;0.00;0.00;;;11.60;73.80;;;;;;5034228;28;20235;-28
2024/01/25 02:14:11;;;;;;;0.00;0.00;;;11.60;73.90;;;;;;5039007;28;20208;-28
2024/01/25 02:16:45;;;;;;;0.00;0.00;;;11.60;73.80;;;;;;5042548;28;20212;-29
2024/01/25 02:19:17;;;;;;;0.00;0.00;;;11.50;73.80;;;;;;5044684;28;20205;-28
2024/01/25 02:21:44;;;;;;;0.00;0.00;;;11.50;73.80;;;;;;5032296;28;20246;-28
2024/01/25 02:24:14;;;;;;;0.00;0.00;;;11.50;73.90;;;;;;5037085;28;20232;-28
2024/01/25 02:26:43;;;;;;;0.00;0.00;;;11.50;73.90;;;;;;5039582;28;20248;-28
2024/01/25 02:29:11;;;;;;;0.00;0.00;;;11.40;73.80;;;;;;5029174;28;20209;-28
2024/01/25 02:31:38;;;;;;;0.00;0.00;;;11.40;73.70;;;;;;5024879;28;20280;-28
2024/01/25 02:34:05;;;;;;;0.00;0.00;;;11.40;73.80;;;;;;5028758;28;20322;-28
2024/01/25 02:36:32;;;;;;;0.00;0.00;;;11.40;73.70;;;;;;5031560;28;20742;-27
2024/01/25 02:39:02;;;;;;;0.00;0.00;;;11.30;73.70;;;;;;5032520;28;20555;-28
2024/01/25 02:41:30;;;;;;;0.00;0.00;;;11.30;73.70;;;;;;5030654;28;20258;-28
2024/01/25 02:44:01;;;;;;;0.00;0.00;;;11.30;73.70;;;;;;5034226;28;20510;-28
2024/01/25 02:46:30;;;;;;;0.00;0.00;;;11.20;73.70;;;;;;5040234;28;20193;-27
2024/01/25 02:48:58;;;;;;;0.00;0.00;;;11.20;73.70;;;;;;5033490;28;20193;-28
2024/01/25 02:51:30;;;;;;;0.00;0.00;;;11.20;73.70;;;;;;5029104;28;20228;-28
2024/01/25 02:54:00;;;;;;;0.00;0.00;;;11.10;73.60;;;;;;5036352;28;20196;-27
2024/01/25 02:56:33;;;;;;;0.00;0.00;;;11.10;73.60;;;;;;5028365;28;20598;-28
2024/01/25 02:59:01;;;;;;;0.00;0.00;;;11.10;74.50;;;;;;5037075;28;20204;-28
2024/01/25 03:01:36;;;;;;;0.00;0.00;;;11.00;73.70;;;;;;5036677;28;20215;-28
2024/01/25 03:04:06;;;;;;;0.00;0.00;;;11.00;73.20;;;;;;5037896;28;20259;-28
2024/01/25 03:06:34;;;;;;;0.00;0.00;;;11.00;74.50;;;;;;5031534;28;20204;-28
2024/01/25 03:09:01;;;;;;;0.00;0.00;;;10.90;73.70;;;;;;5038214;28;20766;-28
2024/01/25 03:11:30;;;;;;;0.00;0.00;;;10.90;73.70;;;;;;5032715;28;20255;-28
2024/01/25 03:14:00;;;;;;;0.00;0.00;;;10.90;73.70;;;;;;5036618;28;20205;-28
2024/01/25 03:16:30;;;;;;;0.00;0.00;;;10.80;73.60;;;;;;5033326;28;20728;-28
2024/01/25 03:19:02;;;;;;;0.00;0.00;;;10.80;73.60;;;;;;5035864;28;20204;-28
2024/01/25 03:21:29;;;;;;;0.00;0.00;;;10.80;73.70;;;;;;5033874;28;20271;-29
2024/01/25 03:23:57;;;;;;;0.00;0.00;;;10.80;73.70;;;;;;5042751;28;20209;-28
2024/01/25 03:26:29;;;;;;;0.00;0.00;;;10.70;73.70;;;;;;5044216;28;20235;-27
2024/01/25 03:28:58;;;;;;;0.00;0.00;;;10.70;73.70;;;;;;5036652;28;20250;-28
2024/01/25 03:31:25;;;;;;;0.00;0.00;;;10.70;73.70;;;;;;5026919;28;20281;-28
2024/01/25 03:33:53;;;;;;;0.00;0.00;;;10.60;73.60;;;;;;5026485;28;20699;-28
2024/01/25 03:36:20;;;;;;;0.00;0.00;;;10.60;73.70;;;;;;5027020;28;20201;-28
2024/01/25 03:38:48;;;;;;;0.00;0.00;;;10.60;73.70;;;;;;5036994;28;20310;-28
2024/01/25 03:41:15;;;;;;;0.00;0.00;;;10.50;73.60;;;;;;5032499;28;20219;-28
2024/01/25 03:43:49;;;;;;;0.00;0.00;;;10.50;73.60;;;;;;5030207;28;20516;-28
2024/01/25 03:46:18;;;;;;;0.00;0.00;;;10.50;73.60;;;;;;5012839;28;20732;-27
2024/01/25 03:48:46;;;;;;;0.00;0.00;;;10.40;73.60;;;;;;5037371;28;20220;-28
2024/01/25 03:51:16;;;;;;;0.00;0.00;;;10.40;73.60;;;;;;5029576;28;20220;-28
2024/01/25 03:53:43;;;;;;;0.00;0.00;;;10.40;73.60;;;;;;5026596;28;20197;-28
2024/01/25 03:56:13;;;;;;;0.00;0.00;;;10.30;73.60;;;;;;5042528;28;20236;-28
2024/01/25 03:58:40;;;;;;;0.00;0.00;;;10.30;73.60;;;;;;5036425;28;20320;-28
2024/01/25 04:01:07;;;;;;;0.00;0.00;;;10.30;73.60;;;;;;5034477;28;20209;-28
2024/01/25 04:03:38;;;;;;;0.00;0.00;;;10.30;73.60;;;;;;5040267;28;20249;-28
2024/01/25 04:06:06;;;;;;;0.00;0.00;;;10.20;73.50;;;;;;5038002;28;20250;-28
2024/01/25 04:08:33;;;;;;;0.00;0.00;;;10.20;73.50;;;;;;5040818;28;20311;-28
2024/01/25 04:11:08;;;;;;;0.00;0.00;;;10.20;73.60;;;;;;5035994;28;20663;-28
2024/01/25 04:13:36;;;;;;;0.00;0.00;;;10.10;74.40;;;;;;5034566;28;20196;-28
2024/01/25 04:16:09;;;;;;;0.00;0.00;;;10.10;73.60;;;;;;5041039;28;20208;-28
2024/01/25 04:18:36;;;;;;;0.00;0.00;;;10.10;73.60;;;;;;5033568;28;20228;-28
2024/01/25 04:21:04;;;;;;;0.00;0.00;;;10.10;73.60;;;;;;5036636;28;20306;-28
2024/01/25 04:23:31;;;;;;;0.00;0.00;;;10.10;73.60;;;;;;5026242;28;20555;-28
2024/01/25 04:26:00;;;;;;;0.00;0.00;;;10.00;73.60;;;;;;5032245;28;20246;-28
2024/01/25 04:28:27;;;;;;;0.00;0.00;;;10.00;73.60;;;;;;5029453;28;20233;-28
2024/01/25 04:30:59;;;;;;;0.00;0.00;;;10.00;73.70;;;;;;5028020;28;20209;-28
2024/01/25 04:33:29;;;;;;;0.00;0.00;;;10.00;73.70;;;;;;5034055;28;20283;-31
2024/01/25 04:35:56;;;;;;;0.00;0.00;;;10.00;73.60;;;;;;5033437;28;20885;-28
2024/01/25 04:38:24;;;;;;;0.00;0.00;;;9.90;73.60;;;;;;5029535;28;20679;-28
2024/01/25 04:40:51;;;;;;;0.00;0.00;;;9.90;73.70;;;;;;5030267;28;20208;-28
2024/01/25 04:43:20;;;;;;;0.00;0.00;;;9.90;73.60;;;;;;5028984;28;20239;-28
2024/01/25 04:45:47;;;;;;;0.00;0.00;;;9.90;73.60;;;;;;5037633;28;20257;-28
2024/01/25 04:48:15;;;;;;;0.00;0.00;;;9.80;73.50;;;;;;5031078;28;20505;-28
2024/01/25 04:50:46;;;;;;;0.00;0.00;;;9.80;73.50;;;;;;5041180;28;20266;-28
2024/01/25 04:53:13;;;;;;;0.00;0.00;;;9.80;73.60;;;;;;5018075;28;20250;-28
2024/01/25 04:55:43;;;;;;;0.00;0.00;;;9.70;73.50;;;;;;5031968;28;20655;-28
2024/01/25 04:58:11;;;;;;;0.00;0.00;;;9.70;73.50;;;;;;5043056;28;20200;-28
2024/01/25 05:00:40;;;;;;;0.00;0.00;;;9.70;73.60;;;;;;5032950;28;20235;-28
2024/01/25 05:03:12;;;;;;;0.00;0.00;;;9.60;73.60;;;;;;5029013;28;20266;-28
2024/01/25 05:05:40;;;;;;;0.00;0.00;;;9.60;73.60;;;;;;5039384;28;20244;-28
2024/01/25 05:08:11;;;;;;;0.00;0.00;;;9.60;73.60;;;;;;5034705;28;20220;-28
2024/01/25 05:10:39;;;;;;;0.00;0.00;;;9.60;73.60;;;;;;5039291;28;20305;-28
2024/01/25 05:13:12;;;;;;;0.00;0.00;;;9.60;73.60;;;;;;5036345;28;20645;-28
2024/01/25 05:15:42;;;;;;;0.00;0.00;;;9.50;73.50;;;;;;5028373;28;20693;-28
2024/01/25 05:18:14;;;;;;;0.00;0.00;;;9.50;73.60;;;;;;5029178;28;20227;-28
2024/01/25 05:20:47;;;;;;;0.00;0.00;;;9.50;73.60;;;;;;5035006;28;20214;-28
2024/01/25 05:23:14;;;;;;;0.00;0.00;;;9.50;73.70;;;;;;5032086;28;20215;-28
2024/01/25 05:25:44;;;;;;;0.00;0.00;;;9.40;73.60;;;;;;5037563;28;20204;-28
2024/01/25 05:28:11;;;;;;;0.00;0.00;;;9.40;73.60;;;;;;5021444;28;20290;-28
2024/01/25 05:30:40;;;;;;;0.00;0.00;;;9.40;73.60;;;;;;5010076;28;20703;-28
2024/01/25 05:33:08;;;;;;;0.00;0.00;;;9.40;73.60;;;;;;5027785;28;20365;-28
2024/01/25 05:35:35;;;;;;;0.00;0.00;;;9.40;73.70;;;;;;5025093;28;20240;-28
2024/01/25 05:38:06;;;;;;;0.00;0.00;;;9.40;73.70;;;;;;5030249;28;20200;-28
2024/01/25 05:40:38;;;;;;;0.00;0.00;;;9.40;73.70;;;;;;5032999;28;20286;-28
2024/01/25 05:43:08;;;;;;;0.00;0.00;;;9.30;73.70;;;;;;5027747;28;20205;-28
2024/01/25 05:45:40;;;;;;;0.00;0.00;;;9.30;73.80;;;;;;5037113;28;20216;-27
2024/01/25 05:48:12;;;;;;;0.00;0.00;;;9.30;73.70;;;;;;5032643;28;20278;-28
2024/01/25 05:50:40;;;;;;;0.00;0.00;;;9.30;73.70;;;;;;5035756;28;20200;-28
2024/01/25 05:53:07;;;;;;;0.00;0.00;;;9.30;73.70;;;;;;5030351;28;20205;-28
2024/01/25 05:55:34;;;;;;;0.00;0.00;;;9.30;73.70;;;;;;5033415;28;20593;-28
2024/01/25 05:58:02;;;;;;;0.00;0.00;;;9.30;73.70;;;;;;5032966;28;20231;-28
2024/01/25 06:00:29;;;;;;;0.00;0.00;;;9.30;73.70;;;;;;5025803;28;20240;-28
2024/01/25 06:02:59;;;;;;;0.00;0.00;;;9.20;73.70;;;;;;5027748;28;20235;-28
2024/01/25 06:05:31;;;;;;;0.00;0.00;;;9.20;73.60;;;;;;5031234;28;20581;-28
2024/01/25 06:08:00;;;;;;;0.00;0.00;;;9.20;73.70;;;;;;5034379;28;20346;-28
2024/01/25 06:10:28;;;;;;;0.00;0.00;;;9.20;73.70;;;;;;5027361;28;20212;-28
2024/01/25 06:12:55;;;;;;;0.00;0.00;;;9.20;73.80;;;;;;5019608;28;20277;-28
2024/01/25 06:15:23;;;;;;;0.00;0.00;;;9.20;73.80;;;;;;5027072;28;20201;-27
2024/01/25 06:17:52;;;;;;;0.00;0.00;;;9.10;73.80;;;;;;5029383;28;20635;-28
2024/01/25 06:20:22;;;;;;;0.00;0.00;;;9.10;73.80;;;;;;5025889;28;20632;-28
2024/01/25 06:22:52;;;;;;;0.00;0.00;;;9.10;73.80;;;;;;5040522;28;20204;-28
2024/01/25 06:25:22;;;;;;;0.00;0.00;;;9.10;73.80;;;;;;5038240;28;20215;-28
2024/01/25 06:27:54;;;;;;;0.00;0.00;;;9.10;73.80;;;;;;5029385;28;20227;-28
2024/01/25 06:30:24;;;;;;;0.00;0.00;;;9.10;73.80;;;;;;5029808;28;20216;-28
2024/01/25 06:32:51;;;;;;;0.00;0.00;;;9.10;73.90;;;;;;5028117;28;20204;-28
2024/01/25 06:35:18;;;;;;;0.00;0.00;;;9.00;73.80;;;;;;5028956;28;20239;-28
2024/01/25 06:37:45;;;;;;;0.00;0.00;;;9.00;73.90;;;;;;5034797;28;20678;-28
2024/01/25 06:40:15;;;;;;;0.00;0.00;;;9.00;73.90;;;;;;5037110;28;20844;-28
2024/01/25 06:42:44;;;;;;;0.00;0.00;;;9.00;73.90;;;;;;5036211;28;20277;-28
2024/01/25 06:45:12;;;;;;;0.00;0.00;;;9.00;73.90;;;;;;5035763;28;20235;-28
2024/01/25 06:47:39;;;;;;;0.00;0.00;;;9.00;73.90;;;;;;5034873;28;20921;-28
2024/01/25 06:50:09;;;;;;;0.00;0.00;;;9.00;74.00;;;;;;5030766;28;20246;-27
2024/01/25 06:52:36;;;;;;;0.00;0.00;;;9.00;74.00;;;;;;5015558;28;20205;-28
2024/01/25 06:55:06;;;;;;;0.00;0.00;;;9.00;74.00;;;;;;5040278;28;20236;-28
2024/01/25 06:57:35;;;;;;;0.00;0.00;;;9.00;74.00;;;;;;5035448;28;20215;-28
2024/01/25 07:00:11;;;;;;;0.00;0.00;;;9.00;74.10;;;;;;5031177;28;20205;-28
2024/01/25 07:02:42;;;;;;;0.00;0.00;;;9.00;74.00;;;;;;5042067;28;20677;-28
2024/01/25 07:05:12;;;;;;;0.00;0.00;;;9.00;74.10;;;;;;5029524;28;20193;-27
2024/01/25 07:07:39;;;;;;;0.00;0.00;;;9.00;74.10;;;;;;5025247;28;20213;-28
2024/01/25 07:10:11;;;;;;;0.00;0.00;;;9.00;74.20;;;;;;5034772;28;20196;-28
2024/01/25 07:12:41;;;;;;;0.00;0.00;;;9.00;74.20;;;;;;5022495;28;20265;-28
2024/01/25 07:15:09;;;;;;;0.00;0.00;;;9.00;74.10;;;;;;5026744;28;20216;-28
2024/01/25 07:17:38;;;;;;;0.00;0.00;;;9.00;74.20;;;;;;5032771;28;20634;-28
2024/01/25 07:20:09;;;;;;;0.00;0.00;;;9.00;74.10;;;;;;5026573;28;20213;-28
2024/01/25 07:22:37;;;;;;;0.00;0.00;;;9.00;74.10;;;;;;5031166;28;20212;-27
2024/01/25 07:25:07;;;;;;;0.00;0.00;;;9.00;74.10;;;;;;5029650;28;20601;-27
2024/01/25 07:27:37;;;;;;;0.00;0.00;;;9.00;74.20;;;;;;5019796;28;20201;-28
2024/01/25 07:30:07;;;;;;;0.00;0.00;;;9.00;74.20;;;;;;5034106;28;20815;-28
2024/01/25 07:32:37;;;;;;;0.00;0.00;;;9.10;74.30;;;;;;5034267;28;20755;-28
2024/01/25 07:35:05;;;;;;;0.00;0.00;;;9.00;74.30;;;;;;5028095;28;20251;-28
2024/01/25 07:37:38;;;;;;;0.00;0.00;;;9.10;74.40;;;;;;5030281;28;20271;-27
2024/01/25 07:40:08;;;;;;;0.00;0.00;;;9.10;74.30;;;;;;5030600;28;20524;-28
2024/01/25 07:42:40;;;;;;;0.00;0.00;;;9.10;75.10;;;;;;5032627;28;20599;-28
2024/01/25 07:45:08;;;;;;;0.00;0.00;;;9.10;74.40;;;;;;5034502;28;20196;-28
2024/01/25 07:47:35;;;;;;;0.00;0.00;;;9.10;74.40;;;;;;5029487;28;20299;-28
2024/01/25 07:50:03;;;;;;;0.00;0.00;;;9.10;74.50;;;;;;5029031;28;20321;-28
2024/01/25 07:52:31;;;;;;;0.00;0.00;;;9.10;74.50;;;;;;5032168;28;20211;-28
2024/01/25 07:54:58;;;;;;;0.00;0.00;;;9.10;74.50;;;;;;5034081;28;20209;-28
2024/01/25 07:57:28;;;;;;;0.00;0.00;;;9.10;74.50;;;;;;5035808;28;20204;-28
2024/01/25 07:59:57;;;;;;;0.00;0.00;;;9.10;74.60;;;;;;5028639;28;20208;-28
2024/01/25 08:02:24;;;;;;;0.00;0.00;;;9.20;74.60;;;;;;5033800;28;20217;-28
2024/01/25 08:04:59;;;;;;;0.00;0.00;;;9.20;74.60;;;;;;5026960;28;20197;-28
2024/01/25 08:07:29;;;;;;;0.00;0.00;;;9.20;74.50;;;;;;5030015;28;20208;-28
2024/01/25 08:09:58;;;;;;;0.00;0.00;;;9.20;74.60;;;;;;5031090;28;20224;-27
2024/01/25 08:12:29;;;;;;;0.00;0.00;;;9.20;74.60;;;;;;5032786;28;20313;-28
2024/01/25 08:14:56;;;;;;;0.00;0.00;;;9.20;74.50;;;;;;5018765;28;20223;-27
2024/01/25 08:17:24;;;;;;;0.00;0.00;;;9.20;74.50;;;;;;5037818;28;20212;-28
2024/01/25 08:19:53;;;;;;;0.00;0.00;;;9.20;74.50;;;;;;5030160;28;20228;-29
2024/01/25 08:22:21;;;;;;;0.00;0.00;;;9.20;74.50;;;;;;5019487;28;20209;-28
2024/01/25 08:24:54;;;;;;;0.00;0.00;;;9.20;74.60;;;;;;5036797;28;20211;-28
2024/01/25 08:27:24;;;;;;;0.00;0.00;;;9.20;74.60;;;;;;5033377;28;20205;-28
2024/01/25 08:29:55;;;;;;;0.00;0.00;;;9.20;74.70;;;;;;5038608;28;20579;-28
2024/01/25 08:32:22;;;;;;;0.00;0.00;;;9.20;74.70;;;;;;5032702;28;20207;-28
2024/01/25 08:34:50;;;;;;;0.00;0.00;;;9.20;74.70;;;;;;5028636;28;20639;-28
2024/01/25 08:37:19;;;;;;;0.00;0.00;;;9.20;74.80;;;;;;5039195;28;20342;-28
2024/01/25 08:39:51;;;;;;;0.00;0.00;;;9.30;75.00;;;;;;5040146;28;20207;-28
2024/01/25 08:42:19;;;;;;;0.00;0.00;;;9.30;75.00;;;;;;5031998;28;20208;-28
2024/01/25 08:44:49;;;;;;;0.00;0.00;;;9.30;74.90;;;;;;5027310;28;20212;-29
2024/01/25 08:47:19;;;;;;;0.00;0.00;;;9.30;74.90;;;;;;5038381;28;20204;-28
2024/01/25 08:49:49;;;;;;;0.00;0.00;;;9.30;74.80;;;;;;5035321;28;20261;-28
2024/01/25 08:52:16;;;;;;;0.00;0.00;;;9.30;74.90;;;;;;5032402;28;20669;-28
2024/01/25 08:54:43;;;;;;;0.00;0.00;;;9.30;75.00;;;;;;5028099;28;20232;-28
2024/01/25 08:57:15;;;;;;;0.00;0.00;;;9.40;75.00;;;;;;5023895;28;20580;-28
2024/01/25 08:59:45;;;;;;;0.00;0.00;;;9.40;75.00;;;;;;5029808;28;20209;-28
2024/01/25 09:02:12;;;;;;;0.00;0.00;;;9.40;75.10;;;;;;5032804;28;20200;-28
2024/01/25 09:04:42;;;;;;;0.00;0.00;;;9.40;75.00;;;;;;5028523;28;20232;-28
2024/01/25 09:07:13;;;;;;;0.00;0.00;;;9.40;75.00;;;;;;5031179;28;20730;-28
2024/01/25 09:09:42;;;;;;;0.00;0.00;;;9.50;75.10;;;;;;5033585;28;20632;-28
2024/01/25 09:12:12;;;;;;;0.00;0.00;;;9.50;75.10;;;;;;5030892;28;20200;-28
2024/01/25 09:14:42;;;;;;;0.00;0.00;;;9.50;75.10;;;;;;5031252;28;20650;-28
2024/01/25 09:17:21;;;;;;;0.00;0.00;;;9.50;75.20;;;;;;5030458;28;20204;-29
2024/01/25 09:19:51;;;;;;;0.00;0.00;;;9.50;75.20;;;;;;5030986;28;20209;-28
2024/01/25 09:22:21;;;;;;;0.00;0.00;;;9.60;75.20;;;;;;5038043;28;20232;-28
2024/01/25 09:24:51;;;;;;;0.00;0.00;;;9.60;75.30;;;;;;5032092;28;20311;-28
2024/01/25 09:27:20;;;;;;;0.00;0.00;;;9.60;75.40;;;;;;5036548;28;20211;-28
2024/01/25 09:29:53;;;;;;;0.00;0.00;;;9.60;75.30;;;;;;5030798;28;20223;-28
2024/01/25 09:32:25;;;;;;;0.00;0.00;;;9.60;75.30;;;;;;5032476;28;20277;-28
2024/01/25 09:34:54;;;;;;;0.00;0.00;;;9.70;75.30;;;;;;5036865;28;20220;-29
2024/01/25 09:37:24;;;;;;;0.00;0.00;;;9.70;75.30;;;;;;5037750;28;20758;-28
2024/01/25 09:39:58;;;;;;;0.00;0.00;;;9.70;75.40;;;;;;5030721;28;20315;-28
2024/01/25 09:42:26;;;;;;;0.00;0.00;;;9.80;75.40;;;;;;5032693;28;20216;-28
2024/01/25 09:44:54;;;;;;;0.00;0.00;;;9.80;75.50;;;;;;5033701;28;20259;-28
2024/01/25 09:47:24;;;;;;;0.00;0.00;;;9.80;75.50;;;;;;5038463;28;20697;-28
2024/01/25 09:49:51;;;;;;;0.00;0.00;;;9.80;75.50;;;;;;5023675;28;20561;-28
2024/01/25 09:52:25;;;;;;;0.00;0.00;;;9.80;75.60;;;;;;5025436;28;20200;-28
2024/01/25 09:54:56;;;;;;;0.00;0.00;;;9.90;75.70;;;;;;5032889;28;20197;-28
2024/01/25 09:57:27;;;;;;;0.00;0.00;;;9.90;75.70;;;;;;5028483;28;20212;-28
2024/01/25 09:59:57;;;;;;;0.00;0.00;;;10.00;75.70;;;;;;5042274;28;20208;-28
2024/01/25 10:02:26;;;;;;;0.00;0.00;;;10.00;75.80;;;;;;5039017;28;20211;-28
2024/01/25 10:04:57;;;;;;;0.00;0.00;;;10.10;75.80;;;;;;5042688;28;20319;-28
2024/01/25 10:07:40;;;;;;;0.00;0.00;;;10.10;75.90;;;;;;5043947;28;20228;-28
2024/01/25 10:10:12;;;;;;;0.00;0.00;;;10.10;75.90;;;;;;5033058;28;21077;-28
2024/01/25 10:12:45;;;;;;;0.00;0.00;;;10.10;75.90;;;;;;5034979;28;20702;-28
2024/01/25 10:15:16;;;;;;;0.00;0.00;;;10.20;75.90;;;;;;5038271;28;20588;-28
2024/01/25 10:17:46;;;;;;;0.00;0.00;;;10.20;75.90;;;;;;5038056;28;20225;-28
2024/01/25 10:20:34;;;;;;;0.00;0.00;;;10.30;76.00;;;;;;5037305;28;20263;-28
2024/01/25 10:23:02;;;;;;;0.00;0.00;;;10.30;76.00;;;;;;5039789;28;20216;-28
2024/01/25 10:25:32;;;;;;;0.00;0.00;;;10.40;76.10;;;;;;5041221;28;20220;-28
2024/01/25 10:28:07;;;;;;;0.00;0.00;;;10.40;76.10;;;;;;5026196;28;20203;-28
2024/01/25 10:30:36;;;;;;;0.00;0.00;;;10.50;76.30;;;;;;5039180;28;20314;-28
2024/01/25 10:33:09;;;;;;;0.00;0.00;;;10.50;76.10;;;;;;5037563;28;20624;-28
2024/01/25 10:35:37;;;;;;;0.00;0.00;;;10.50;76.20;;;;;;5034851;28;20251;-28
2024/01/25 10:38:07;;;;;;;0.00;0.00;;;10.60;76.30;;;;;;5039406;28;20222;-28
2024/01/25 10:40:43;;;;;;;0.00;0.00;;;10.60;76.30;;;;;;5037107;28;20213;-28
2024/01/25 10:43:15;;;;;;;0.00;0.00;;;10.70;76.30;;;;;;5038909;28;20226;-28
2024/01/25 10:45:46;;;;;;;0.00;0.00;;;10.70;76.40;;;;;;5044831;28;20204;-28
2024/01/25 10:48:14;;;;;;;0.00;0.00;;;10.70;76.20;;;;;;5038182;28;20270;-28
2024/01/25 10:50:42;;;;;;;0.00;0.00;;;10.80;76.30;;;;;;5029453;28;20361;-27
2024/01/25 10:53:09;;;;;;;0.00;0.00;;;10.80;76.30;;;;;;5043270;28;20208;-28
2024/01/25 10:55:37;;;;;;;0.00;0.00;;;10.90;76.40;;;;;;5032179;28;20629;-27
2024/01/25 10:58:08;;;;;;;0.00;0.00;;;10.90;76.40;;;;;;5044103;28;20205;-28
2024/01/25 11:00:38;;;;;;;0.00;0.00;;;10.90;76.40;;;;;;5035962;28;20212;-28
2024/01/25 11:03:10;;;;;;;0.00;0.00;;;10.90;76.50;;;;;;5035049;28;20714;-28
2024/01/25 11:05:37;;;;;;;0.00;0.00;;;11.00;76.50;;;;;;5036632;28;20628;-28
2024/01/25 11:08:19;;;;;;;0.00;0.00;;;11.00;77.20;;;;;;5035319;28;20209;-28
2024/01/25 11:10:52;;;;;;;0.00;0.00;;;11.10;76.60;;;;;;5033742;28;20217;-28
2024/01/25 11:13:29;;;;;;;0.00;0.00;;;11.10;76.60;;;;;;5036083;28;20205;-28
2024/01/25 11:15:57;;;;;;;0.00;0.00;;;11.10;76.60;;;;;;5030589;28;20196;-28
2024/01/25 11:18:27;;;;;;;0.00;0.00;;;11.20;76.50;;;;;;5040174;28;20277;-28
2024/01/25 11:21:00;;;;;;;0.00;0.00;;;11.20;76.60;;;;;;5035701;28;20695;-28
2024/01/25 11:23:34;;;;;;;0.00;0.00;;;11.20;76.60;;;;;;5031183;28;20212;-28
2024/01/25 11:26:02;;;;;;;0.00;0.00;;;11.30;76.60;;;;;;5029243;28;20678;-28
2024/01/25 11:28:29;;;;;;;0.00;0.00;;;11.30;76.60;;;;;;5026785;28;20204;-28
2024/01/25 11:30:57;;;;;;;0.00;0.00;;;11.30;76.60;;;;;;5038550;28;20331;-38
2024/01/25 11:33:27;;;;;;;0.00;0.00;;;11.40;76.70;;;;;;5042472;28;20280;-39
2024/01/25 11:35:59;;;;;;;0.00;0.00;;;11.40;76.80;;;;;;5037439;28;20228;-38
2024/01/25 11:38:29;;;;;;;0.00;0.00;;;11.50;76.80;;;;;;5032859;28;20205;-42
2024/01/25 11:41:00;;;;;;;0.00;0.00;;;11.50;76.70;;;;;;5037859;28;20205;-42
2024/01/25 11:43:28;;;;;;;0.00;0.00;;;11.50;76.70;;;;;;5027528;28;20213;-41
2024/01/25 11:45:55;;;;;;;0.00;0.00;;;11.50;76.80;;;;;;5038220;28;20216;-40
2024/01/25 11:48:25;;;;;;;0.00;0.00;;;11.60;76.80;;;;;;5028950;28;20200;-40
2024/01/25 11:50:52;;;;;;;0.00;0.00;;;11.60;76.80;;;;;;5029537;28;20220;-41
2024/01/25 11:53:19;;;;;;;0.00;0.00;;;11.60;76.80;;;;;;5030795;28;20283;-41
2024/01/25 11:55:52;;;;;;;0.00;0.00;;;11.60;76.80;;;;;;5036285;28;20203;-40
2024/01/25 11:58:22;;;;;;;0.00;0.00;;;11.70;76.80;;;;;;5034313;28;20211;-39
2024/01/25 12:00:50;;;;;;;0.00;0.00;;;11.70;76.80;;;;;;5032703;28;20204;-38
2024/01/25 12:03:18;;;;;;;0.00;0.00;;;11.70;76.80;;;;;;5029453;28;20212;-39
2024/01/25 12:05:48;;;;;;;0.00;0.00;;;11.80;76.90;;;;;;5027127;28;20208;-38
2024/01/25 12:08:22;;;;;;;0.00;0.00;;;11.80;77.00;;;;;;5031412;28;20220;-39
2024/01/25 12:10:49;;;;;;;0.00;0.00;;;11.80;77.00;;;;;;5025090;28;20603;-38
2024/01/25 12:13:19;;;;;;;0.00;0.00;;;11.90;77.00;;;;;;5029730;28;20212;-40
2024/01/25 12:15:47;;;;;;;0.00;0.00;;;11.90;77.00;;;;;;5035486;28;20290;-39
2024/01/25 12:18:15;;;;;;;0.00;0.00;;;11.90;77.00;;;;;;5027569;28;20315;-40
2024/01/25 12:20:45;;;;;;;0.00;0.00;;;12.00;77.10;;;;;;5037249;28;20638;-41
2024/01/25 12:23:14;;;;;;;0.00;0.00;;;12.00;77.10;;;;;;5042057;28;20279;-40
2024/01/25 12:25:41;;;;;;;0.00;0.00;;;12.00;77.00;;;;;;5031642;28;20207;-40
2024/01/25 12:28:10;;;;;;;0.00;0.00;;;12.10;77.10;;;;;;5030596;28;20287;-40
2024/01/25 12:30:39;;;;;;;0.00;0.00;;;12.10;77.00;;;;;;5033220;28;20391;-41
2024/01/25 12:33:07;;;;;;;0.00;0.00;;;12.20;77.10;;;;;;5034471;28;20197;-39
2024/01/25 12:35:37;;;;;;;0.00;0.00;;;12.20;77.20;;;;;;5035890;28;20324;-39
2024/01/25 12:38:07;;;;;;;0.00;0.00;;;12.20;77.10;;;;;;5045141;28;20220;-39
2024/01/25 12:40:36;;;;;;;0.00;0.00;;;12.20;77.20;;;;;;5035295;28;20204;-41
2024/01/25 12:43:09;;;;;;;0.00;0.00;;;12.20;77.20;;;;;;5018215;28;20209;-40
2024/01/25 12:45:39;;;;;;;0.00;0.00;;;12.30;77.30;;;;;;5034986;28;20220;-39
2024/01/25 12:48:07;;;;;;;0.00;0.00;;;12.30;77.30;;;;;;5038738;28;20200;-41
2024/01/25 12:50:38;;;;;;;0.00;0.00;;;12.40;77.30;;;;;;5027240;28;20609;-38
2024/01/25 12:53:09;;;;;;;0.00;0.00;;;12.40;77.30;;;;;;5025163;28;20969;-40
2024/01/25 12:55:38;;;;;;;0.00;0.00;;;12.40;77.20;;;;;;5024826;28;20201;-39
2024/01/25 12:58:08;;;;;;;0.00;0.00;;;12.40;77.30;;;;;;5034707;28;20331;-39
2024/01/25 13:00:38;;;;;;;0.00;0.00;;;12.50;77.30;;;;;;5028844;28;20266;-39
2024/01/25 13:03:06;;;;;;;0.00;0.00;;;12.50;77.30;;;;;;5034721;28;20219;-41